sensor_id;sensor_type;location;lat;lon;timestamp;temperature;humidity
25440;DHT22;13365;52.208;5.488;2024-03-08T00:02:24;7.00;99.90
25440;DHT22;13365;52.208;5.488;2024-03-08T00:04:49;6.90;99.90
25440;DHT22;13365;52.208;5.488;2024-03-08T00:07:15;6.80;99.90
25440;DHT22;13365;52.208;5.488;2024-03-08T00:09:40;6.60;99.90
25440;DHT22;13365;52.208;5.488;2024-03-08T00:12:06;6.60;99.90
25440;DHT22;13365;52.208;5.488;2024-03-08T00:14:31;6.50;99.90
25440;DHT22;13365;52.208;5.488;2024-03-08T00:16:58;6.40;99.90
25440;DHT22;13365;52.208;5.488;2024-03-08T00:19:24;6.60;99.90
25440;DHT22;13365;52.208;5.488;2024-03-08T00:21:49;6.50;99.90
25440;DHT22;13365;52.208;5.488;2024-03-08T00:24:15;6.50;99.90
25440;DHT22;13365;52.208;5.488;2024-03-08T00:26:40;6.60;99.90
25440;DHT22;13365;52.208;5.488;2024-03-08T00:29:07;6.50;99.90
25440;DHT22;13365;52.208;5.488;2024-03-08T00:31:33;6.50;99.90
25440;DHT22;13365;52.208;5.488;2024-03-08T00:33:58;6.50;99.90
25440;DHT22;13365;52.208;5.488;2024-03-08T00:36:24;6.50;99.90
25440;DHT22;13365;52.208;5.488;2024-03-08T00:38:50;6.50;99.90
25440;DHT22;13365;52.208;5.488;2024-03-08T00:41:15;6.50;99.90
25440;DHT22;13365;52.208;5.488;2024-03-08T00:43:41;6.40;99.90
25440;DHT22;13365;52.208;5.488;2024-03-08T00:46:06;6.40;99.90
25440;DHT22;13365;52.208;5.488;2024-03-08T00:48:32;6.50;99.90
25440;DHT22;13365;52.208;5.488;2024-03-08T00:50:57;6.60;99.90
25440;DHT22;13365;52.208;5.488;2024-03-08T00:53:22;6.30;99.90
25440;DHT22;13365;52.208;5.488;2024-03-08T00:55:48;6.10;99.90
25440;DHT22;13365;52.208;5.488;2024-03-08T00:58:14;6.10;99.90
25440;DHT22;13365;52.208;5.488;2024-03-08T01:00:39;6.10;99.90
25440;DHT22;13365;52.208;5.488;2024-03-08T01:03:05;6.20;99.90
25440;DHT22;13365;52.208;5.488;2024-03-08T01:05:30;6.20;99.90
25440;DHT22;13365;52.208;5.488;2024-03-08T01:07:56;6.20;99.90
25440;DHT22;13365;52.208;5.488;2024-03-08T01:10:21;6.20;99.90
25440;DHT22;13365;52.208;5.488;2024-03-08T01:12:48;6.10;99.90
25440;DHT22;13365;52.208;5.488;2024-03-08T01:15:13;5.90;99.90
25440;DHT22;13365;52.208;5.488;2024-03-08T01:17:39;5.80;99.90
25440;DHT22;13365;52.208;5.488;2024-03-08T01:20:04;5.70;99.90
25440;DHT22;13365;52.208;5.488;2024-03-08T01:22:30;5.70;99.90
25440;DHT22;13365;52.208;5.488;2024-03-08T01:24:56;5.70;99.90
25440;DHT22;13365;52.208;5.488;2024-03-08T01:27:21;5.80;99.90
25440;DHT22;13365;52.208;5.488;2024-03-08T01:29:47;5.80;99.90
25440;DHT22;13365;52.208;5.488;2024-03-08T01:32:13;5.90;99.90
25440;DHT22;13365;52.208;5.488;2024-03-08T01:34:38;5.80;99.90
25440;DHT22;13365;52.208;5.488;2024-03-08T01:37:04;5.90;99.90
25440;DHT22;13365;52.208;5.488;2024-03-08T01:39:29;5.90;99.90
25440;DHT22;13365;52.208;5.488;2024-03-08T01:41:55;5.90;99.90
25440;DHT22;13365;52.208;5.488;2024-03-08T01:44:20;5.70;99.90
25440;DHT22;13365;52.208;5.488;2024-03-08T01:46:46;5.70;99.90
25440;DHT22;13365;52.208;5.488;2024-03-08T01:49:12;5.60;99.90
25440;DHT22;13365;52.208;5.488;2024-03-08T01:51:38;5.70;99.90
25440;DHT22;13365;52.208;5.488;2024-03-08T01:54:04;5.70;99.90
25440;DHT22;13365;52.208;5.488;2024-03-08T01:56:30;5.80;99.90
25440;DHT22;13365;52.208;5.488;2024-03-08T01:58:57;5.70;99.90
25440;DHT22;13365;52.208;5.488;2024-03-08T02:01:22;5.80;99.90
25440;DHT22;13365;52.208;5.488;2024-03-08T02:03:49;5.70;99.90
25440;DHT22;13365;52.208;5.488;2024-03-08T02:06:15;5.60;99.90
25440;DHT22;13365;52.208;5.488;2024-03-08T02:08:45;5.70;99.90
25440;DHT22;13365;52.208;5.488;2024-03-08T02:11:11;5.70;99.90
25440;DHT22;13365;52.208;5.488;2024-03-08T02:13:37;5.70;99.90
25440;DHT22;13365;52.208;5.488;2024-03-08T02:16:02;5.70;99.90
25440;DHT22;13365;52.208;5.488;2024-03-08T02:18:29;5.50;99.90
25440;DHT22;13365;52.208;5.488;2024-03-08T02:21:04;5.70;99.90
25440;DHT22;13365;52.208;5.488;2024-03-08T02:23:29;5.60;99.90
25440;DHT22;13365;52.208;5.488;2024-03-08T02:25:56;5.80;99.90
25440;DHT22;13365;52.208;5.488;2024-03-08T02:28:21;5.60;99.90
25440;DHT22;13365;52.208;5.488;2024-03-08T02:30:47;5.70;99.90
25440;DHT22;13365;52.208;5.488;2024-03-08T02:33:13;5.70;99.90
25440;DHT22;13365;52.208;5.488;2024-03-08T02:35:42;5.70;99.90
25440;DHT22;13365;52.208;5.488;2024-03-08T02:38:11;5.80;99.90
25440;DHT22;13365;52.208;5.488;2024-03-08T02:40:36;5.80;99.90
25440;DHT22;13365;52.208;5.488;2024-03-08T02:43:02;5.80;99.90
25440;DHT22;13365;52.208;5.488;2024-03-08T02:45:30;5.80;99.90
25440;DHT22;13365;52.208;5.488;2024-03-08T02:47:55;5.90;99.90
25440;DHT22;13365;52.208;5.488;2024-03-08T02:50:21;5.70;99.90
25440;DHT22;13365;52.208;5.488;2024-03-08T02:52:48;5.80;99.90
25440;DHT22;13365;52.208;5.488;2024-03-08T02:55:14;5.90;99.90
25440;DHT22;13365;52.208;5.488;2024-03-08T02:57:42;6.00;99.90
25440;DHT22;13365;52.208;5.488;2024-03-08T03:00:09;6.00;99.90
25440;DHT22;13365;52.208;5.488;2024-03-08T03:02:35;6.10;99.90
25440;DHT22;13365;52.208;5.488;2024-03-08T03:05:01;6.00;99.90
25440;DHT22;13365;52.208;5.488;2024-03-08T03:07:31;5.90;99.90
25440;DHT22;13365;52.208;5.488;2024-03-08T03:09:56;5.80;99.90
25440;DHT22;13365;52.208;5.488;2024-03-08T03:12:22;5.70;99.90
25440;DHT22;13365;52.208;5.488;2024-03-08T03:14:48;5.60;99.90
25440;DHT22;13365;52.208;5.488;2024-03-08T03:17:13;5.70;99.90
25440;DHT22;13365;52.208;5.488;2024-03-08T03:19:42;5.80;99.90
25440;DHT22;13365;52.208;5.488;2024-03-08T03:22:08;5.80;99.90
25440;DHT22;13365;52.208;5.488;2024-03-08T03:24:35;5.80;99.90
25440;DHT22;13365;52.208;5.488;2024-03-08T03:27:03;5.60;99.90
25440;DHT22;13365;52.208;5.488;2024-03-08T03:29:36;5.70;99.90
25440;DHT22;13365;52.208;5.488;2024-03-08T03:32:02;6.00;99.90
25440;DHT22;13365;52.208;5.488;2024-03-08T03:34:29;6.00;99.90
25440;DHT22;13365;52.208;5.488;2024-03-08T03:36:54;5.90;99.90
25440;DHT22;13365;52.208;5.488;2024-03-08T03:39:21;6.00;99.90
25440;DHT22;13365;52.208;5.488;2024-03-08T03:41:48;5.90;99.90
25440;DHT22;13365;52.208;5.488;2024-03-08T03:44:17;6.00;99.90
25440;DHT22;13365;52.208;5.488;2024-03-08T03:46:43;6.00;99.90
25440;DHT22;13365;52.208;5.488;2024-03-08T03:49:11;5.90;99.90
25440;DHT22;13365;52.208;5.488;2024-03-08T03:51:37;5.90;99.90
25440;DHT22;13365;52.208;5.488;2024-03-08T03:54:03;6.10;99.90
25440;DHT22;13365;52.208;5.488;2024-03-08T03:56:29;5.80;99.90
25440;DHT22;13365;52.208;5.488;2024-03-08T03:58:54;5.70;99.90
25440;DHT22;13365;52.208;5.488;2024-03-08T04:01:20;5.80;99.90
25440;DHT22;13365;52.208;5.488;2024-03-08T04:03:45;5.90;99.90
25440;DHT22;13365;52.208;5.488;2024-03-08T04:06:10;6.00;99.90
25440;DHT22;13365;52.208;5.488;2024-03-08T04:08:36;6.00;99.90
25440;DHT22;13365;52.208;5.488;2024-03-08T04:11:01;6.10;99.90
25440;DHT22;13365;52.208;5.488;2024-03-08T04:13:28;6.00;99.90
25440;DHT22;13365;52.208;5.488;2024-03-08T04:15:53;6.00;99.90
25440;DHT22;13365;52.208;5.488;2024-03-08T04:18:19;6.00;99.90
25440;DHT22;13365;52.208;5.488;2024-03-08T04:20:44;6.00;99.90
25440;DHT22;13365;52.208;5.488;2024-03-08T04:23:10;6.00;99.90
25440;DHT22;13365;52.208;5.488;2024-03-08T04:25:36;6.10;99.90
25440;DHT22;13365;52.208;5.488;2024-03-08T04:28:01;6.20;99.90
25440;DHT22;13365;52.208;5.488;2024-03-08T04:30:27;6.20;99.90
25440;DHT22;13365;52.208;5.488;2024-03-08T04:32:53;6.30;99.90
25440;DHT22;13365;52.208;5.488;2024-03-08T04:35:19;6.30;99.90
25440;DHT22;13365;52.208;5.488;2024-03-08T04:37:45;6.20;99.90
25440;DHT22;13365;52.208;5.488;2024-03-08T04:40:11;6.20;99.90
25440;DHT22;13365;52.208;5.488;2024-03-08T04:42:37;6.30;99.90
25440;DHT22;13365;52.208;5.488;2024-03-08T04:45:03;6.40;99.90
25440;DHT22;13365;52.208;5.488;2024-03-08T04:47:29;6.30;99.90
25440;DHT22;13365;52.208;5.488;2024-03-08T04:49:55;6.30;99.90
25440;DHT22;13365;52.208;5.488;2024-03-08T04:52:21;6.20;99.90
25440;DHT22;13365;52.208;5.488;2024-03-08T04:54:47;6.20;99.90
25440;DHT22;13365;52.208;5.488;2024-03-08T04:57:12;6.10;99.90
25440;DHT22;13365;52.208;5.488;2024-03-08T04:59:38;6.20;99.90
25440;DHT22;13365;52.208;5.488;2024-03-08T05:02:03;6.00;99.90
25440;DHT22;13365;52.208;5.488;2024-03-08T05:04:29;6.10;99.90
25440;DHT22;13365;52.208;5.488;2024-03-08T05:06:55;6.10;99.90
25440;DHT22;13365;52.208;5.488;2024-03-08T05:09:20;6.00;99.90
25440;DHT22;13365;52.208;5.488;2024-03-08T05:11:46;5.90;99.90
25440;DHT22;13365;52.208;5.488;2024-03-08T05:14:15;5.70;99.90
25440;DHT22;13365;52.208;5.488;2024-03-08T05:16:45;5.80;99.90
25440;DHT22;13365;52.208;5.488;2024-03-08T05:19:14;5.80;99.90
25440;DHT22;13365;52.208;5.488;2024-03-08T05:21:42;5.90;99.90
25440;DHT22;13365;52.208;5.488;2024-03-08T05:24:08;5.80;99.90
25440;DHT22;13365;52.208;5.488;2024-03-08T05:26:35;5.80;99.90
25440;DHT22;13365;52.208;5.488;2024-03-08T05:29:00;5.90;99.90
25440;DHT22;13365;52.208;5.488;2024-03-08T05:31:26;6.00;99.90
25440;DHT22;13365;52.208;5.488;2024-03-08T05:33:53;5.90;99.90
25440;DHT22;13365;52.208;5.488;2024-03-08T05:36:21;5.90;99.90
25440;DHT22;13365;52.208;5.488;2024-03-08T05:38:46;5.80;99.90
25440;DHT22;13365;52.208;5.488;2024-03-08T05:41:12;5.80;99.90
25440;DHT22;13365;52.208;5.488;2024-03-08T05:43:37;5.70;99.90
25440;DHT22;13365;52.208;5.488;2024-03-08T05:46:04;5.70;99.90
25440;DHT22;13365;52.208;5.488;2024-03-08T05:48:32;5.70;99.90
25440;DHT22;13365;52.208;5.488;2024-03-08T05:50:58;5.60;99.90
25440;DHT22;13365;52.208;5.488;2024-03-08T05:53:25;5.80;99.90
25440;DHT22;13365;52.208;5.488;2024-03-08T05:55:50;5.50;99.90
25440;DHT22;13365;52.208;5.488;2024-03-08T05:58:15;5.40;99.90
25440;DHT22;13365;52.208;5.488;2024-03-08T06:00:41;5.40;99.90
25440;DHT22;13365;52.208;5.488;2024-03-08T06:03:07;5.30;99.90
25440;DHT22;13365;52.208;5.488;2024-03-08T06:05:32;5.30;99.90
25440;DHT22;13365;52.208;5.488;2024-03-08T06:07:58;5.10;99.90
25440;DHT22;13365;52.208;5.488;2024-03-08T06:10:24;5.10;99.90
25440;DHT22;13365;52.208;5.488;2024-03-08T06:12:49;5.00;99.90
25440;DHT22;13365;52.208;5.488;2024-03-08T06:15:15;5.00;99.90
25440;DHT22;13365;52.208;5.488;2024-03-08T06:17:41;4.90;99.90
25440;DHT22;13365;52.208;5.488;2024-03-08T06:20:07;4.80;99.90
25440;DHT22;13365;52.208;5.488;2024-03-08T06:22:37;4.90;99.90
25440;DHT22;13365;52.208;5.488;2024-03-08T06:25:02;5.10;99.90
25440;DHT22;13365;52.208;5.488;2024-03-08T06:27:28;5.30;99.90
25440;DHT22;13365;52.208;5.488;2024-03-08T06:29:53;5.30;99.90
25440;DHT22;13365;52.208;5.488;2024-03-08T06:32:19;5.10;99.90
25440;DHT22;13365;52.208;5.488;2024-03-08T06:34:44;5.10;99.90
25440;DHT22;13365;52.208;5.488;2024-03-08T06:37:10;5.10;99.90
25440;DHT22;13365;52.208;5.488;2024-03-08T06:39:35;5.20;99.90
25440;DHT22;13365;52.208;5.488;2024-03-08T06:42:01;5.30;99.90
25440;DHT22;13365;52.208;5.488;2024-03-08T06:44:26;5.30;99.90
25440;DHT22;13365;52.208;5.488;2024-03-08T06:46:52;5.50;99.90
25440;DHT22;13365;52.208;5.488;2024-03-08T06:49:17;5.60;99.90
25440;DHT22;13365;52.208;5.488;2024-03-08T06:51:43;5.60;99.90
25440;DHT22;13365;52.208;5.488;2024-03-08T06:54:08;5.50;99.90
25440;DHT22;13365;52.208;5.488;2024-03-08T06:56:34;5.60;99.90
25440;DHT22;13365;52.208;5.488;2024-03-08T06:59:00;5.50;99.90
25440;DHT22;13365;52.208;5.488;2024-03-08T07:01:28;5.60;99.90
25440;DHT22;13365;52.208;5.488;2024-03-08T07:03:57;5.60;99.90
25440;DHT22;13365;52.208;5.488;2024-03-08T07:06:22;5.60;99.90
25440;DHT22;13365;52.208;5.488;2024-03-08T07:08:48;5.30;99.90
25440;DHT22;13365;52.208;5.488;2024-03-08T07:11:14;5.20;99.90
25440;DHT22;13365;52.208;5.488;2024-03-08T07:13:44;5.30;99.90
25440;DHT22;13365;52.208;5.488;2024-03-08T07:16:10;5.50;99.90
25440;DHT22;13365;52.208;5.488;2024-03-08T07:18:37;5.70;99.90
25440;DHT22;13365;52.208;5.488;2024-03-08T07:21:05;5.70;99.90
25440;DHT22;13365;52.208;5.488;2024-03-08T07:23:30;5.80;99.90
25440;DHT22;13365;52.208;5.488;2024-03-08T07:26:15;6.00;99.90
25440;DHT22;13365;52.208;5.488;2024-03-08T07:28:40;5.90;99.90
25440;DHT22;13365;52.208;5.488;2024-03-08T07:31:06;6.00;99.90
25440;DHT22;13365;52.208;5.488;2024-03-08T07:33:42;6.10;99.90
25440;DHT22;13365;52.208;5.488;2024-03-08T07:36:08;6.30;99.90
25440;DHT22;13365;52.208;5.488;2024-03-08T07:38:33;6.50;99.90
25440;DHT22;13365;52.208;5.488;2024-03-08T07:40:59;6.60;99.90
25440;DHT22;13365;52.208;5.488;2024-03-08T07:43:25;6.80;99.90
25440;DHT22;13365;52.208;5.488;2024-03-08T07:45:50;6.90;99.90
25440;DHT22;13365;52.208;5.488;2024-03-08T07:48:18;6.90;99.90
25440;DHT22;13365;52.208;5.488;2024-03-08T07:50:43;7.10;99.90
25440;DHT22;13365;52.208;5.488;2024-03-08T07:53:09;7.30;99.90
25440;DHT22;13365;52.208;5.488;2024-03-08T07:55:35;7.20;99.90
25440;DHT22;13365;52.208;5.488;2024-03-08T07:58:04;7.60;99.90
25440;DHT22;13365;52.208;5.488;2024-03-08T08:00:29;7.70;99.90
25440;DHT22;13365;52.208;5.488;2024-03-08T08:02:56;7.80;99.90
25440;DHT22;13365;52.208;5.488;2024-03-08T08:05:22;7.80;99.90
25440;DHT22;13365;52.208;5.488;2024-03-08T08:07:47;7.80;99.90
25440;DHT22;13365;52.208;5.488;2024-03-08T08:10:13;7.80;99.90
25440;DHT22;13365;52.208;5.488;2024-03-08T08:12:50;7.70;99.90
25440;DHT22;13365;52.208;5.488;2024-03-08T08:15:16;7.70;99.90
25440;DHT22;13365;52.208;5.488;2024-03-08T08:17:46;7.90;99.90
25440;DHT22;13365;52.208;5.488;2024-03-08T08:20:12;7.80;99.90
25440;DHT22;13365;52.208;5.488;2024-03-08T08:22:38;7.90;99.90
25440;DHT22;13365;52.208;5.488;2024-03-08T08:25:05;8.20;99.90
25440;DHT22;13365;52.208;5.488;2024-03-08T08:27:30;8.40;99.90
25440;DHT22;13365;52.208;5.488;2024-03-08T08:29:56;8.40;99.90
25440;DHT22;13365;52.208;5.488;2024-03-08T08:32:21;8.40;99.90
25440;DHT22;13365;52.208;5.488;2024-03-08T08:34:47;8.40;99.90
25440;DHT22;13365;52.208;5.488;2024-03-08T08:37:13;8.30;99.90
25440;DHT22;13365;52.208;5.488;2024-03-08T08:39:38;8.70;99.90
25440;DHT22;13365;52.208;5.488;2024-03-08T08:42:04;9.10;99.90
25440;DHT22;13365;52.208;5.488;2024-03-08T08:44:29;9.10;99.60
25440;DHT22;13365;52.208;5.488;2024-03-08T08:46:57;9.00;99.80
25440;DHT22;13365;52.208;5.488;2024-03-08T08:49:22;9.00;99.90
25440;DHT22;13365;52.208;5.488;2024-03-08T08:51:49;9.20;99.90
25440;DHT22;13365;52.208;5.488;2024-03-08T08:54:15;9.30;99.90
25440;DHT22;13365;52.208;5.488;2024-03-08T08:56:42;9.40;99.50
25440;DHT22;13365;52.208;5.488;2024-03-08T08:59:09;9.40;99.70
25440;DHT22;13365;52.208;5.488;2024-03-08T09:01:35;9.40;98.90
25440;DHT22;13365;52.208;5.488;2024-03-08T09:04:00;9.10;98.70
25440;DHT22;13365;52.208;5.488;2024-03-08T09:06:26;9.20;99.70
25440;DHT22;13365;52.208;5.488;2024-03-08T09:08:51;9.10;99.90
25440;DHT22;13365;52.208;5.488;2024-03-08T09:11:18;9.30;99.90
25440;DHT22;13365;52.208;5.488;2024-03-08T09:13:46;9.40;99.50
25440;DHT22;13365;52.208;5.488;2024-03-08T09:16:12;9.50;98.80
25440;DHT22;13365;52.208;5.488;2024-03-08T09:18:37;9.40;99.90
25440;DHT22;13365;52.208;5.488;2024-03-08T09:21:03;9.60;99.10
25440;DHT22;13365;52.208;5.488;2024-03-08T09:23:30;9.80;99.00
25440;DHT22;13365;52.208;5.488;2024-03-08T09:25:56;10.10;98.90
25440;DHT22;13365;52.208;5.488;2024-03-08T09:28:23;10.20;98.40
25440;DHT22;13365;52.208;5.488;2024-03-08T09:30:48;10.40;97.60
25440;DHT22;13365;52.208;5.488;2024-03-08T09:33:14;10.70;98.60
25440;DHT22;13365;52.208;5.488;2024-03-08T09:35:45;10.80;97.20
25440;DHT22;13365;52.208;5.488;2024-03-08T09:38:12;10.90;97.10
25440;DHT22;13365;52.208;5.488;2024-03-08T09:40:40;11.10;97.70
25440;DHT22;13365;52.208;5.488;2024-03-08T09:43:06;11.20;97.10
25440;DHT22;13365;52.208;5.488;2024-03-08T09:45:31;11.40;97.70
25440;DHT22;13365;52.208;5.488;2024-03-08T09:48:00;11.60;97.30
25440;DHT22;13365;52.208;5.488;2024-03-08T09:50:26;12.00;96.30
25440;DHT22;13365;52.208;5.488;2024-03-08T09:52:53;12.10;95.20
25440;DHT22;13365;52.208;5.488;2024-03-08T09:55:19;12.30;95.60
25440;DHT22;13365;52.208;5.488;2024-03-08T09:57:47;12.40;95.60
25440;DHT22;13365;52.208;5.488;2024-03-08T10:00:33;12.60;94.70
25440;DHT22;13365;52.208;5.488;2024-03-08T10:03:02;12.70;94.30
25440;DHT22;13365;52.208;5.488;2024-03-08T10:05:27;12.90;94.50
25440;DHT22;13365;52.208;5.488;2024-03-08T10:07:53;13.10;93.70
25440;DHT22;13365;52.208;5.488;2024-03-08T10:10:18;13.20;93.00
25440;DHT22;13365;52.208;5.488;2024-03-08T10:12:44;13.30;92.80
25440;DHT22;13365;52.208;5.488;2024-03-08T10:15:11;13.10;92.40
25440;DHT22;13365;52.208;5.488;2024-03-08T10:17:37;13.10;92.90
25440;DHT22;13365;52.208;5.488;2024-03-08T10:20:14;13.20;93.30
25440;DHT22;13365;52.208;5.488;2024-03-08T10:22:40;13.20;92.90
25440;DHT22;13365;52.208;5.488;2024-03-08T10:25:09;13.50;93.30
25440;DHT22;13365;52.208;5.488;2024-03-08T10:27:35;13.30;91.60
25440;DHT22;13365;52.208;5.488;2024-03-08T10:30:01;13.10;92.40
25440;DHT22;13365;52.208;5.488;2024-03-08T10:32:27;13.40;93.10
25440;DHT22;13365;52.208;5.488;2024-03-08T10:34:53;13.50;92.30
25440;DHT22;13365;52.208;5.488;2024-03-08T10:37:21;13.60;91.80
25440;DHT22;13365;52.208;5.488;2024-03-08T10:39:52;13.40;91.20
25440;DHT22;13365;52.208;5.488;2024-03-08T10:42:21;13.50;91.70
25440;DHT22;13365;52.208;5.488;2024-03-08T10:45:12;13.40;91.30
25440;DHT22;13365;52.208;5.488;2024-03-08T10:47:40;12.90;91.20
25440;DHT22;13365;52.208;5.488;2024-03-08T10:50:20;12.60;92.50
25440;DHT22;13365;52.208;5.488;2024-03-08T10:52:50;12.50;92.00
25440;DHT22;13365;52.208;5.488;2024-03-08T10:55:18;12.50;92.80
25440;DHT22;13365;52.208;5.488;2024-03-08T10:57:45;12.70;92.80
25440;DHT22;13365;52.208;5.488;2024-03-08T11:00:11;13.10;92.70
25440;DHT22;13365;52.208;5.488;2024-03-08T11:02:37;13.40;92.20
25440;DHT22;13365;52.208;5.488;2024-03-08T11:05:03;13.50;91.20
25440;DHT22;13365;52.208;5.488;2024-03-08T11:07:33;13.20;90.40
25440;DHT22;13365;52.208;5.488;2024-03-08T11:09:59;13.30;91.70
25440;DHT22;13365;52.208;5.488;2024-03-08T11:12:29;13.30;91.40
25440;DHT22;13365;52.208;5.488;2024-03-08T11:15:14;13.30;91.80
25440;DHT22;13365;52.208;5.488;2024-03-08T11:17:50;13.60;91.00
25440;DHT22;13365;52.208;5.488;2024-03-08T11:20:16;13.70;91.50
25440;DHT22;13365;52.208;5.488;2024-03-08T11:28:11;13.90;90.00
25440;DHT22;13365;52.208;5.488;2024-03-08T11:30:42;13.60;91.20
25440;DHT22;13365;52.208;5.488;2024-03-08T11:33:11;13.40;90.10
25440;DHT22;13365;52.208;5.488;2024-03-08T11:35:37;13.60;90.80
25440;DHT22;13365;52.208;5.488;2024-03-08T11:38:03;13.30;89.20
25440;DHT22;13365;52.208;5.488;2024-03-08T11:40:29;13.30;91.80
25440;DHT22;13365;52.208;5.488;2024-03-08T11:42:55;13.60;90.80
25440;DHT22;13365;52.208;5.488;2024-03-08T11:45:20;13.90;90.40
25440;DHT22;13365;52.208;5.488;2024-03-08T11:47:50;14.20;90.10
25440;DHT22;13365;52.208;5.488;2024-03-08T11:50:15;14.50;90.30
25440;DHT22;13365;52.208;5.488;2024-03-08T11:52:42;14.40;89.10
25440;DHT22;13365;52.208;5.488;2024-03-08T11:55:08;14.10;89.50
25440;DHT22;13365;52.208;5.488;2024-03-08T11:57:34;13.90;89.70
25440;DHT22;13365;52.208;5.488;2024-03-08T11:59:59;14.10;89.70
25440;DHT22;13365;52.208;5.488;2024-03-08T12:02:32;14.30;88.70
25440;DHT22;13365;52.208;5.488;2024-03-08T12:05:01;13.90;87.60
25440;DHT22;13365;52.208;5.488;2024-03-08T12:07:31;13.90;89.80
25440;DHT22;13365;52.208;5.488;2024-03-08T12:10:19;13.60;89.10
25440;DHT22;13365;52.208;5.488;2024-03-08T12:12:47;13.80;90.60
25440;DHT22;13365;52.208;5.488;2024-03-08T12:15:17;14.00;88.90
25440;DHT22;13365;52.208;5.488;2024-03-08T12:17:43;14.10;89.30
25440;DHT22;13365;52.208;5.488;2024-03-08T12:20:15;14.30;89.60
25440;DHT22;13365;52.208;5.488;2024-03-08T12:22:42;14.50;86.90
25440;DHT22;13365;52.208;5.488;2024-03-08T12:25:08;14.40;87.00
25440;DHT22;13365;52.208;5.488;2024-03-08T12:27:36;14.40;88.10
25440;DHT22;13365;52.208;5.488;2024-03-08T12:30:16;14.50;86.20
25440;DHT22;13365;52.208;5.488;2024-03-08T12:32:46;14.60;88.70
25440;DHT22;13365;52.208;5.488;2024-03-08T12:35:12;14.90;89.30
25440;DHT22;13365;52.208;5.488;2024-03-08T12:37:39;15.00;85.40
25440;DHT22;13365;52.208;5.488;2024-03-08T12:40:06;14.80;86.50
25440;DHT22;13365;52.208;5.488;2024-03-08T12:42:32;14.70;84.90
25440;DHT22;13365;52.208;5.488;2024-03-08T12:45:00;14.90;87.10
25440;DHT22;13365;52.208;5.488;2024-03-08T12:47:26;15.00;83.80
25440;DHT22;13365;52.208;5.488;2024-03-08T12:49:54;15.10;84.00
25440;DHT22;13365;52.208;5.488;2024-03-08T12:52:20;15.10;84.10
25440;DHT22;13365;52.208;5.488;2024-03-08T12:54:46;15.10;84.00
25440;DHT22;13365;52.208;5.488;2024-03-08T12:57:12;15.00;82.70
25440;DHT22;13365;52.208;5.488;2024-03-08T12:59:38;15.20;83.50
25440;DHT22;13365;52.208;5.488;2024-03-08T13:02:04;15.40;83.70
25440;DHT22;13365;52.208;5.488;2024-03-08T13:04:36;15.70;85.20
25440;DHT22;13365;52.208;5.488;2024-03-08T13:07:02;15.60;82.90
25440;DHT22;13365;52.208;5.488;2024-03-08T13:09:27;15.50;81.40
25440;DHT22;13365;52.208;5.488;2024-03-08T13:11:53;15.40;81.00
25440;DHT22;13365;52.208;5.488;2024-03-08T13:14:20;15.50;80.80
25440;DHT22;13365;52.208;5.488;2024-03-08T13:16:46;15.40;82.70
25440;DHT22;13365;52.208;5.488;2024-03-08T13:19:13;15.30;81.40
25440;DHT22;13365;52.208;5.488;2024-03-08T13:21:39;15.10;82.50
25440;DHT22;13365;52.208;5.488;2024-03-08T13:24:04;14.90;80.90
25440;DHT22;13365;52.208;5.488;2024-03-08T13:26:30;14.90;82.70
25440;DHT22;13365;52.208;5.488;2024-03-08T13:28:59;15.10;83.10
25440;DHT22;13365;52.208;5.488;2024-03-08T13:31:25;15.30;83.50
25440;DHT22;13365;52.208;5.488;2024-03-08T13:33:50;15.20;81.80
25440;DHT22;13365;52.208;5.488;2024-03-08T13:36:22;15.20;81.00
25440;DHT22;13365;52.208;5.488;2024-03-08T13:38:49;15.50;82.80
25440;DHT22;13365;52.208;5.488;2024-03-08T13:41:15;15.60;80.90
25440;DHT22;13365;52.208;5.488;2024-03-08T13:43:42;15.70;81.10
25440;DHT22;13365;52.208;5.488;2024-03-08T13:46:08;15.50;80.50
25440;DHT22;13365;52.208;5.488;2024-03-08T13:48:35;15.00;81.30
25440;DHT22;13365;52.208;5.488;2024-03-08T13:51:03;14.90;82.40
25440;DHT22;13365;52.208;5.488;2024-03-08T13:53:28;15.10;83.20
25440;DHT22;13365;52.208;5.488;2024-03-08T13:55:54;14.90;80.50
25440;DHT22;13365;52.208;5.488;2024-03-08T13:58:21;14.70;82.30
25440;DHT22;13365;52.208;5.488;2024-03-08T14:00:47;14.60;82.90
25440;DHT22;13365;52.208;5.488;2024-03-08T14:03:13;14.60;83.00
25440;DHT22;13365;52.208;5.488;2024-03-08T14:05:39;14.60;82.70
25440;DHT22;13365;52.208;5.488;2024-03-08T14:08:05;14.70;81.40
25440;DHT22;13365;52.208;5.488;2024-03-08T14:10:33;14.80;81.40
25440;DHT22;13365;52.208;5.488;2024-03-08T14:12:59;15.00;82.20
25440;DHT22;13365;52.208;5.488;2024-03-08T14:15:25;14.90;82.60
25440;DHT22;13365;52.208;5.488;2024-03-08T14:17:52;14.80;82.70
25440;DHT22;13365;52.208;5.488;2024-03-08T14:20:17;14.40;82.70
25440;DHT22;13365;52.208;5.488;2024-03-08T14:22:43;14.30;82.90
25440;DHT22;13365;52.208;5.488;2024-03-08T14:25:08;14.00;83.40
25440;DHT22;13365;52.208;5.488;2024-03-08T14:27:43;13.80;83.90
25440;DHT22;13365;52.208;5.488;2024-03-08T14:30:09;13.90;83.50
25440;DHT22;13365;52.208;5.488;2024-03-08T14:32:35;13.80;83.60
25440;DHT22;13365;52.208;5.488;2024-03-08T14:35:05;14.00;85.50
25440;DHT22;13365;52.208;5.488;2024-03-08T14:37:31;14.10;85.20
25440;DHT22;13365;52.208;5.488;2024-03-08T14:39:56;14.50;84.30
25440;DHT22;13365;52.208;5.488;2024-03-08T14:42:22;14.60;81.70
25440;DHT22;13365;52.208;5.488;2024-03-08T14:44:48;14.40;82.20
25440;DHT22;13365;52.208;5.488;2024-03-08T14:47:33;14.50;82.80
25440;DHT22;13365;52.208;5.488;2024-03-08T14:49:59;14.50;83.60
25440;DHT22;13365;52.208;5.488;2024-03-08T14:52:25;14.20;80.70
25440;DHT22;13365;52.208;5.488;2024-03-08T14:54:54;14.10;82.00
25440;DHT22;13365;52.208;5.488;2024-03-08T14:57:21;14.00;82.00
25440;DHT22;13365;52.208;5.488;2024-03-08T14:59:46;14.00;81.80
25440;DHT22;13365;52.208;5.488;2024-03-08T15:02:12;14.30;83.20
25440;DHT22;13365;52.208;5.488;2024-03-08T15:04:37;14.60;81.60
25440;DHT22;13365;52.208;5.488;2024-03-08T15:07:06;15.00;81.10
25440;DHT22;13365;52.208;5.488;2024-03-08T15:09:35;15.30;79.60
25440;DHT22;13365;52.208;5.488;2024-03-08T15:12:08;15.50;79.90
25440;DHT22;13365;52.208;5.488;2024-03-08T15:14:34;15.50;78.00
25440;DHT22;13365;52.208;5.488;2024-03-08T15:16:59;15.30;76.90
25440;DHT22;13365;52.208;5.488;2024-03-08T15:19:26;15.30;76.70
25440;DHT22;13365;52.208;5.488;2024-03-08T15:21:52;14.90;78.20
25440;DHT22;13365;52.208;5.488;2024-03-08T15:24:21;14.70;79.70
25440;DHT22;13365;52.208;5.488;2024-03-08T15:26:48;14.40;79.90
25440;DHT22;13365;52.208;5.488;2024-03-08T15:29:16;14.40;81.00
25440;DHT22;13365;52.208;5.488;2024-03-08T15:31:43;14.30;80.90
25440;DHT22;13365;52.208;5.488;2024-03-08T15:34:08;14.30;80.90
25440;DHT22;13365;52.208;5.488;2024-03-08T15:36:36;14.30;80.50
25440;DHT22;13365;52.208;5.488;2024-03-08T15:39:02;14.10;81.10
25440;DHT22;13365;52.208;5.488;2024-03-08T15:41:28;14.00;80.50
25440;DHT22;13365;52.208;5.488;2024-03-08T15:43:54;14.10;81.40